createdAt,value
2022-09-12T05:26:02.393Z,10.08
2022-09-12T05:35:28.187Z,9.98
2022-09-12T05:54:06.177Z,10.03
2022-09-12T06:08:34.756Z,10.23
2022-09-12T06:13:24.228Z,10.21
2022-09-12T06:38:13.633Z,10.40
2022-09-12T06:43:01.014Z,10.40
2022-09-12T06:53:09.268Z,10.28
2022-09-12T06:58:31.166Z,10.27
2022-09-12T07:02:43.550Z,10.29
2022-09-12T07:12:36.950Z,10.37
2022-09-12T07:17:10.071Z,10.35
2022-09-12T07:22:20.326Z,10.33
2022-09-12T07:32:30.732Z,10.33
2022-09-12T07:36:37.478Z,10.34
2022-09-12T07:41:03.765Z,10.38
2022-09-12T07:45:19.477Z,10.47
2022-09-12T07:49:48.118Z,10.57
2022-09-12T07:53:52.172Z,10.69
2022-09-12T07:58:39.028Z,10.72
2022-09-12T08:03:15.967Z,10.81
2022-09-12T08:08:25.584Z,10.84
2022-09-12T08:12:40.087Z,10.90
2022-09-12T08:17:47.094Z,10.92
2022-09-12T08:22:10.357Z,11.00
2022-09-12T08:31:22.875Z,11.19
2022-09-12T08:35:51.788Z,11.22
2022-09-12T08:41:24.041Z,11.23
2022-09-12T08:46:11.496Z,11.25
2022-09-12T08:51:14.265Z,11.23
2022-09-12T08:56:03.585Z,11.21
2022-09-12T09:00:17.621Z,11.20
2022-09-12T09:04:33.208Z,11.25
2022-09-12T09:09:01.725Z,11.31
2022-09-12T09:13:09.806Z,11.32
2022-09-12T09:17:40.926Z,11.34
2022-09-12T09:22:21.903Z,11.37
2022-09-12T09:26:41.171Z,11.35
2022-09-12T09:31:04.250Z,11.40
2022-09-12T09:35:47.080Z,11.45
2022-09-12T09:39:58.677Z,11.52
2022-09-12T09:44:24.252Z,11.61
2022-09-12T09:48:39.830Z,11.70
2022-09-12T09:52:59.976Z,11.68
2022-09-12T09:57:06.480Z,11.66
2022-09-12T10:01:29.386Z,11.59
2022-09-12T10:06:00.497Z,11.57
2022-09-12T10:10:16.235Z,11.65
2022-09-12T10:15:01.490Z,11.75
2022-09-12T10:19:04.005Z,11.72
2022-09-12T10:23:18.789Z,11.69
2022-09-12T10:27:38.743Z,11.72
2022-09-12T10:31:57.233Z,11.73
2022-09-12T10:36:00.629Z,11.75
2022-09-12T10:40:06.554Z,11.76
2022-09-12T10:44:18.442Z,11.83
2022-09-12T10:48:32.831Z,11.86
2022-09-12T10:52:41.426Z,11.86
2022-09-12T10:56:44.749Z,11.88
2022-09-12T11:01:06.589Z,11.88
2022-09-12T11:05:24.640Z,11.88
2022-09-12T11:09:49.171Z,11.90
2022-09-12T11:14:37.174Z,11.94
2022-09-12T11:19:41.619Z,11.99
2022-09-12T11:24:31.102Z,11.98
2022-09-12T11:28:51.690Z,12.00
2022-09-12T11:33:28.558Z,12.06
2022-09-12T11:37:31.130Z,12.07
2022-09-12T11:42:04.150Z,12.10
2022-09-12T11:46:19.908Z,12.11
2022-09-12T11:50:42.753Z,12.11
2022-09-12T11:55:15.210Z,12.20
2022-09-12T11:59:32.360Z,12.30
2022-09-12T12:03:44.693Z,12.37
2022-09-12T12:08:01.320Z,12.51
2022-09-12T12:12:26.262Z,12.59
2022-09-12T12:16:40.648Z,12.66
2022-09-12T12:20:43.973Z,12.79
2022-09-12T12:25:16.229Z,12.99
2022-09-12T12:29:23.406Z,13.17
2022-09-12T12:33:27.115Z,13.36
2022-09-12T12:37:29.402Z,13.52
2022-09-12T12:41:46.711Z,13.55
2022-09-12T12:46:20.570Z,13.60
2022-09-12T12:50:31.380Z,13.60
2022-09-12T12:54:45.733Z,13.51
2022-09-12T12:58:51.339Z,13.49
2022-09-12T13:03:08.519Z,13.45
2022-09-12T13:07:43.059Z,13.42
2022-09-12T13:12:01.117Z,13.36
2022-09-12T13:16:12.377Z,13.32
2022-09-12T13:20:28.960Z,13.27
2022-09-12T13:24:32.765Z,13.25
2022-09-12T13:28:35.102Z,13.20
2022-09-12T13:32:38.097Z,13.17
2022-09-12T13:37:02.866Z,13.16
2022-09-12T13:41:36.444Z,13.15
2022-09-12T13:45:43.179Z,13.11
2022-09-12T13:49:47.744Z,13.03
2022-09-12T13:53:55.969Z,13.02
2022-09-12T13:58:07.179Z,13.02
2022-09-12T14:02:21.218Z,13.04
2022-09-12T14:06:25.773Z,13.00
2022-09-12T14:10:35.706Z,13.01
2022-09-12T14:14:43.638Z,13.03
2022-09-12T14:18:50.390Z,13.02
2022-09-12T14:22:55.904Z,13.08
2022-09-12T14:26:58.448Z,13.10
2022-09-12T14:31:26.542Z,13.10
2022-09-12T14:35:32.320Z,13.07
2022-09-12T14:39:44.753Z,13.04
2022-09-12T14:43:54.594Z,13.00
2022-09-12T14:47:59.269Z,12.99
2022-09-12T14:52:35.814Z,13.01
2022-09-12T14:56:45.374Z,13.09
2022-09-12T15:01:04.495Z,13.06
2022-09-12T15:05:06.575Z,13.03
2022-09-12T15:09:20.953Z,13.05
2022-09-12T15:13:26.631Z,13.00
2022-09-12T15:17:28.934Z,12.97
2022-09-12T15:21:31.249Z,12.96
2022-09-12T15:25:33.608Z,12.96
2022-09-12T15:29:36.110Z,12.90
2022-09-12T15:33:38.401Z,12.83
2022-09-12T15:37:42.069Z,12.78
2022-09-12T15:41:47.848Z,12.76
2022-09-12T15:45:52.048Z,12.74
2022-09-12T15:49:55.636Z,12.76
2022-09-12T15:54:03.954Z,12.73
2022-09-12T15:58:08.810Z,12.66
2022-09-12T16:02:12.189Z,12.60
2022-09-12T16:06:15.222Z,12.55
2022-09-12T16:10:20.888Z,12.55
2022-09-12T16:14:28.679Z,12.65
2022-09-12T16:18:33.255Z,12.76
2022-09-12T16:22:36.038Z,12.80
2022-09-12T16:26:41.982Z,12.91
2022-09-12T16:30:59.517Z,12.95
2022-09-12T16:35:06.159Z,12.96
2022-09-12T16:39:09.217Z,12.96
2022-09-12T16:43:14.101Z,13.02
2022-09-12T16:47:17.060Z,13.02
2022-09-12T16:51:25.618Z,12.99
2022-09-12T16:55:32.243Z,12.96
2022-09-12T16:59:37.545Z,12.90
2022-09-12T17:03:42.435Z,12.80
2022-09-12T17:07:46.803Z,12.79
2022-09-12T17:11:49.886Z,12.74
2022-09-12T17:15:52.335Z,12.76
2022-09-12T17:19:55.438Z,12.74
2022-09-12T17:23:58.899Z,12.75
2022-09-12T17:28:05.144Z,12.80
2022-09-12T17:32:09.100Z,12.76
2022-09-12T17:36:17.839Z,12.68
2022-09-12T17:40:37.129Z,12.61
2022-09-12T17:44:45.876Z,12.55
2022-09-12T17:48:54.628Z,12.46
2022-09-12T17:52:57.425Z,12.41
2022-09-12T17:57:00.622Z,12.30
2022-09-12T18:01:29.026Z,12.27
2022-09-12T18:05:35.653Z,12.26
2022-09-12T18:09:45.810Z,12.27
2022-09-12T18:13:49.379Z,12.28
2022-09-12T18:17:57.815Z,12.27
2022-09-12T18:22:01.004Z,12.22
2022-09-12T18:26:13.900Z,12.21
2022-09-12T18:30:23.319Z,12.21
2022-09-12T18:34:35.603Z,12.19
2022-09-12T18:38:39.182Z,12.17
2022-09-12T18:42:42.334Z,12.18
2022-09-12T18:46:45.904Z,12.18
2022-09-12T18:50:48.131Z,12.19
2022-09-12T18:54:51.374Z,12.16
2022-09-12T18:58:57.901Z,12.09
2022-09-12T19:03:01.215Z,12.01
2022-09-12T19:07:11.868Z,11.98
2022-09-12T19:11:15.773Z,11.99
2022-09-12T19:15:19.651Z,12.05
2022-09-12T19:19:24.422Z,12.12
2022-09-12T19:23:29.218Z,12.18
2022-09-12T19:27:31.636Z,12.27
2022-09-12T19:31:35.759Z,12.34
2022-09-12T19:35:38.452Z,12.34
2022-09-12T19:39:44.308Z,12.35
2022-09-12T19:43:46.830Z,12.36
2022-09-12T19:47:50.053Z,12.36
2022-09-12T19:51:54.793Z,12.39
2022-09-12T19:56:03.252Z,12.33
2022-09-12T20:00:09.648Z,12.22
2022-09-12T20:04:13.724Z,12.14
2022-09-12T20:08:41.761Z,12.09
2022-09-12T20:13:09.005Z,12.03
2022-09-12T20:17:16.285Z,11.88
2022-09-12T20:21:27.600Z,11.74
2022-09-12T20:25:33.941Z,11.65
2022-09-12T20:30:37.268Z,11.60
2022-09-12T20:35:28.553Z,11.53
2022-09-12T20:40:11.449Z,11.47
2022-09-12T20:44:34.428Z,11.36
2022-09-12T20:48:58.424Z,11.30
2022-09-12T20:53:21.432Z,11.35
2022-09-12T20:57:27.057Z,11.39
2022-09-12T21:02:19.024Z,11.38
2022-09-12T21:06:50.742Z,11.35
2022-09-12T21:11:25.948Z,11.37
2022-09-12T21:16:26.713Z,11.46
2022-09-12T21:21:03.833Z,11.57
2022-09-12T21:25:52.175Z,11.65
2022-09-12T21:30:46.687Z,11.61
2022-09-12T21:35:10.436Z,11.57
2022-09-12T21:39:51.043Z,11.64
2022-09-12T21:43:54.839Z,11.70
2022-09-12T21:48:20.712Z,11.70
2022-09-12T21:53:12.714Z,11.59
2022-09-12T21:58:04.335Z,11.53
2022-09-12T22:02:50.037Z,11.53
2022-09-12T22:07:35.712Z,11.55
2022-09-12T22:12:03.328Z,11.63
2022-09-12T22:16:13.389Z,11.65
2022-09-12T22:20:16.150Z,11.62
2022-09-12T22:24:39.730Z,11.57
2022-09-12T22:29:04.845Z,11.61
2022-09-12T22:33:46.924Z,11.68
2022-09-12T22:38:22.411Z,11.78
2022-09-12T22:43:08.122Z,11.81
2022-09-12T22:47:45.720Z,11.83
2022-09-12T22:52:46.763Z,11.82
2022-09-12T22:57:14.756Z,11.74
2022-09-12T23:02:10.768Z,11.59
2022-09-12T23:06:47.824Z,11.38
2022-09-12T23:11:28.797Z,11.23
2022-09-12T23:16:00.977Z,11.28
2022-09-12T23:21:16.765Z,11.40
2022-09-12T23:26:08.854Z,11.38
2022-09-12T23:31:05.084Z,11.35
2022-09-12T23:35:57.784Z,11.26
2022-09-12T23:40:38.738Z,11.29
2022-09-12T23:45:26.923Z,11.36
2022-09-12T23:49:55.845Z,11.27
2022-09-12T23:55:00.249Z,11.15
2022-09-12T23:59:11.043Z,11.12
